sensor_id;sensor_type;location;lat;lon;timestamp;P1;durP1;ratioP1;P2;durP2;ratioP2
68140;SDS011;54941;52.220;104.306;2023-07-29T00:01:38;8.88;;;7.80;;
68140;SDS011;54941;52.220;104.306;2023-07-29T00:04:06;10.52;;;8.02;;
68140;SDS011;54941;52.220;104.306;2023-07-29T00:06:32;11.27;;;8.00;;
68140;SDS011;54941;52.220;104.306;2023-07-29T00:08:58;10.10;;;8.23;;
68140;SDS011;54941;52.220;104.306;2023-07-29T00:11:24;8.60;;;7.43;;
68140;SDS011;54941;52.220;104.306;2023-07-29T00:13:51;9.20;;;8.20;;
68140;SDS011;54941;52.220;104.306;2023-07-29T00:16:18;9.23;;;7.90;;
68140;SDS011;54941;52.220;104.306;2023-07-29T00:18:45;9.13;;;7.25;;
68140;SDS011;54941;52.220;104.306;2023-07-29T00:21:11;8.18;;;6.82;;
68140;SDS011;54941;52.220;104.306;2023-07-29T00:23:37;7.95;;;7.13;;
68140;SDS011;54941;52.220;104.306;2023-07-29T00:26:04;9.07;;;7.13;;
68140;SDS011;54941;52.220;104.306;2023-07-29T00:28:30;8.25;;;7.43;;
68140;SDS011;54941;52.220;104.306;2023-07-29T00:30:57;9.00;;;7.57;;
68140;SDS011;54941;52.220;104.306;2023-07-29T00:33:25;8.90;;;7.88;;
68140;SDS011;54941;52.220;104.306;2023-07-29T00:35:51;8.88;;;7.75;;
68140;SDS011;54941;52.220;104.306;2023-07-29T00:38:17;9.60;;;8.10;;
68140;SDS011;54941;52.220;104.306;2023-07-29T00:40:44;9.30;;;7.80;;
68140;SDS011;54941;52.220;104.306;2023-07-29T00:43:10;10.27;;;8.88;;
68140;SDS011;54941;52.220;104.306;2023-07-29T00:45:36;10.65;;;8.65;;
68140;SDS011;54941;52.220;104.306;2023-07-29T00:48:04;9.95;;;8.27;;
68140;SDS011;54941;52.220;104.306;2023-07-29T00:50:32;10.48;;;8.43;;
68140;SDS011;54941;52.220;104.306;2023-07-29T00:52:58;11.27;;;8.90;;
68140;SDS011;54941;52.220;104.306;2023-07-29T00:55:25;11.00;;;8.65;;
68140;SDS011;54941;52.220;104.306;2023-07-29T00:57:53;10.00;;;8.32;;
68140;SDS011;54941;52.220;104.306;2023-07-29T01:00:20;12.48;;;8.68;;
68140;SDS011;54941;52.220;104.306;2023-07-29T01:02:47;10.13;;;7.75;;
68140;SDS011;54941;52.220;104.306;2023-07-29T01:05:14;9.18;;;8.25;;
68140;SDS011;54941;52.220;104.306;2023-07-29T01:07:44;10.15;;;8.57;;
68140;SDS011;54941;52.220;104.306;2023-07-29T01:10:17;9.93;;;8.77;;
68140;SDS011;54941;52.220;104.306;2023-07-29T01:12:54;10.30;;;8.70;;
68140;SDS011;54941;52.220;104.306;2023-07-29T01:15:28;11.95;;;9.07;;
68140;SDS011;54941;52.220;104.306;2023-07-29T01:18:01;11.40;;;8.38;;
68140;SDS011;54941;52.220;104.306;2023-07-29T01:20:31;9.30;;;8.40;;
68140;SDS011;54941;52.220;104.306;2023-07-29T01:23:00;10.60;;;8.45;;
68140;SDS011;54941;52.220;104.306;2023-07-29T01:25:28;10.18;;;8.63;;
68140;SDS011;54941;52.220;104.306;2023-07-29T01:27:55;11.48;;;9.98;;
68140;SDS011;54941;52.220;104.306;2023-07-29T01:30:22;9.07;;;8.18;;
68140;SDS011;54941;52.220;104.306;2023-07-29T01:32:54;8.75;;;7.85;;
68140;SDS011;54941;52.220;104.306;2023-07-29T01:35:27;9.43;;;8.43;;
68140;SDS011;54941;52.220;104.306;2023-07-29T01:38:01;9.77;;;8.55;;
68140;SDS011;54941;52.220;104.306;2023-07-29T01:40:32;10.52;;;8.20;;
68140;SDS011;54941;52.220;104.306;2023-07-29T01:42:59;8.80;;;7.90;;
68140;SDS011;54941;52.220;104.306;2023-07-29T01:45:26;9.35;;;7.97;;
68140;SDS011;54941;52.220;104.306;2023-07-29T01:47:52;9.07;;;7.95;;
68140;SDS011;54941;52.220;104.306;2023-07-29T01:50:19;8.73;;;7.38;;
68140;SDS011;54941;52.220;104.306;2023-07-29T01:52:45;9.35;;;8.13;;
68140;SDS011;54941;52.220;104.306;2023-07-29T01:55:11;8.32;;;7.45;;
68140;SDS011;54941;52.220;104.306;2023-07-29T01:57:39;8.50;;;7.65;;
68140;SDS011;54941;52.220;104.306;2023-07-29T02:00:06;8.00;;;7.20;;
68140;SDS011;54941;52.220;104.306;2023-07-29T02:02:33;9.02;;;7.72;;
68140;SDS011;54941;52.220;104.306;2023-07-29T02:04:59;8.57;;;7.63;;
68140;SDS011;54941;52.220;104.306;2023-07-29T02:07:30;9.00;;;8.07;;
68140;SDS011;54941;52.220;104.306;2023-07-29T02:09:57;8.27;;;7.47;;
68140;SDS011;54941;52.220;104.306;2023-07-29T02:12:23;8.95;;;8.05;;
68140;SDS011;54941;52.220;104.306;2023-07-29T02:14:51;9.07;;;7.70;;
68140;SDS011;54941;52.220;104.306;2023-07-29T02:17:18;8.38;;;7.20;;
68140;SDS011;54941;52.220;104.306;2023-07-29T02:19:44;8.13;;;7.32;;
68140;SDS011;54941;52.220;104.306;2023-07-29T02:22:12;9.60;;;8.30;;
68140;SDS011;54941;52.220;104.306;2023-07-29T02:24:39;8.18;;;7.22;;
68140;SDS011;54941;52.220;104.306;2023-07-29T02:27:06;8.23;;;7.32;;
68140;SDS011;54941;52.220;104.306;2023-07-29T02:29:32;8.60;;;7.20;;
68140;SDS011;54941;52.220;104.306;2023-07-29T02:32:00;7.93;;;7.13;;
68140;SDS011;54941;52.220;104.306;2023-07-29T02:34:27;7.43;;;6.72;;
68140;SDS011;54941;52.220;104.306;2023-07-29T02:36:53;7.50;;;6.65;;
68140;SDS011;54941;52.220;104.306;2023-07-29T02:39:19;7.82;;;7.03;;
68140;SDS011;54941;52.220;104.306;2023-07-29T02:41:46;7.70;;;6.90;;
68140;SDS011;54941;52.220;104.306;2023-07-29T02:44:12;9.02;;;7.20;;
68140;SDS011;54941;52.220;104.306;2023-07-29T02:46:38;7.93;;;7.13;;
68140;SDS011;54941;52.220;104.306;2023-07-29T02:49:06;8.20;;;7.40;;
68140;SDS011;54941;52.220;104.306;2023-07-29T02:51:32;7.80;;;7.00;;
68140;SDS011;54941;52.220;104.306;2023-07-29T02:53:59;7.63;;;6.82;;
68140;SDS011;54941;52.220;104.306;2023-07-29T02:56:25;8.02;;;6.80;;
68140;SDS011;54941;52.220;104.306;2023-07-29T02:58:51;8.40;;;6.55;;
68140;SDS011;54941;52.220;104.306;2023-07-29T03:01:18;7.20;;;6.50;;
68140;SDS011;54941;52.220;104.306;2023-07-29T03:03:44;7.55;;;6.78;;
68140;SDS011;54941;52.220;104.306;2023-07-29T03:06:13;8.50;;;7.00;;
68140;SDS011;54941;52.220;104.306;2023-07-29T03:08:40;8.00;;;7.15;;
68140;SDS011;54941;52.220;104.306;2023-07-29T03:11:06;9.68;;;7.35;;
68140;SDS011;54941;52.220;104.306;2023-07-29T03:13:34;8.20;;;7.20;;
68140;SDS011;54941;52.220;104.306;2023-07-29T03:16:04;7.90;;;7.10;;
68140;SDS011;54941;52.220;104.306;2023-07-29T03:18:31;8.95;;;7.65;;
68140;SDS011;54941;52.220;104.306;2023-07-29T03:20:57;8.43;;;7.10;;
68140;SDS011;54941;52.220;104.306;2023-07-29T03:23:25;7.90;;;7.10;;
68140;SDS011;54941;52.220;104.306;2023-07-29T03:25:51;8.95;;;7.55;;
68140;SDS011;54941;52.220;104.306;2023-07-29T03:28:20;7.97;;;6.72;;
68140;SDS011;54941;52.220;104.306;2023-07-29T03:30:46;8.40;;;6.45;;
68140;SDS011;54941;52.220;104.306;2023-07-29T03:33:12;8.20;;;6.32;;
68140;SDS011;54941;52.220;104.306;2023-07-29T03:35:39;6.75;;;6.05;;
68140;SDS011;54941;52.220;104.306;2023-07-29T03:38:05;6.82;;;5.93;;
68140;SDS011;54941;52.220;104.306;2023-07-29T03:40:33;7.85;;;6.32;;
68140;SDS011;54941;52.220;104.306;2023-07-29T03:42:59;8.23;;;6.53;;
68140;SDS011;54941;52.220;104.306;2023-07-29T03:45:25;7.97;;;6.43;;
68140;SDS011;54941;52.220;104.306;2023-07-29T03:47:52;7.00;;;6.25;;
68140;SDS011;54941;52.220;104.306;2023-07-29T03:50:18;6.78;;;6.07;;
68140;SDS011;54941;52.220;104.306;2023-07-29T03:52:44;6.88;;;5.70;;
68140;SDS011;54941;52.220;104.306;2023-07-29T03:55:15;7.13;;;6.10;;
68140;SDS011;54941;52.220;104.306;2023-07-29T03:57:43;6.20;;;5.40;;
68140;SDS011;54941;52.220;104.306;2023-07-29T04:00:10;6.93;;;5.80;;
68140;SDS011;54941;52.220;104.306;2023-07-29T04:02:36;6.75;;;6.05;;
68140;SDS011;54941;52.220;104.306;2023-07-29T04:05:03;6.70;;;5.93;;
68140;SDS011;54941;52.220;104.306;2023-07-29T04:07:30;6.57;;;5.80;;
68140;SDS011;54941;52.220;104.306;2023-07-29T04:09:56;6.75;;;5.65;;
68140;SDS011;54941;52.220;104.306;2023-07-29T04:12:23;7.97;;;6.05;;
68140;SDS011;54941;52.220;104.306;2023-07-29T04:14:51;7.10;;;6.40;;
68140;SDS011;54941;52.220;104.306;2023-07-29T04:17:20;7.10;;;5.82;;
68140;SDS011;54941;52.220;104.306;2023-07-29T04:19:46;7.25;;;6.50;;
68140;SDS011;54941;52.220;104.306;2023-07-29T04:22:12;7.43;;;6.20;;
68140;SDS011;54941;52.220;104.306;2023-07-29T04:24:40;6.47;;;5.70;;
68140;SDS011;54941;52.220;104.306;2023-07-29T04:27:06;6.93;;;6.10;;
68140;SDS011;54941;52.220;104.306;2023-07-29T04:29:32;7.25;;;5.80;;
68140;SDS011;54941;52.220;104.306;2023-07-29T04:32:03;8.20;;;6.65;;
68140;SDS011;54941;52.220;104.306;2023-07-29T04:34:29;8.45;;;6.30;;
68140;SDS011;54941;52.220;104.306;2023-07-29T04:36:58;6.88;;;6.10;;
68140;SDS011;54941;52.220;104.306;2023-07-29T04:39:24;6.88;;;6.13;;
68140;SDS011;54941;52.220;104.306;2023-07-29T04:41:51;7.60;;;6.15;;
68140;SDS011;54941;52.220;104.306;2023-07-29T04:44:17;7.15;;;6.38;;
68140;SDS011;54941;52.220;104.306;2023-07-29T04:46:43;8.13;;;6.15;;
68140;SDS011;54941;52.220;104.306;2023-07-29T04:49:11;9.48;;;6.85;;
68140;SDS011;54941;52.220;104.306;2023-07-29T04:51:37;8.75;;;6.30;;
68140;SDS011;54941;52.220;104.306;2023-07-29T04:54:04;7.30;;;6.38;;
68140;SDS011;54941;52.220;104.306;2023-07-29T04:56:30;7.55;;;6.70;;
68140;SDS011;54941;52.220;104.306;2023-07-29T04:58:56;8.55;;;7.22;;
68140;SDS011;54941;52.220;104.306;2023-07-29T05:01:23;7.88;;;6.05;;
68140;SDS011;54941;52.220;104.306;2023-07-29T05:03:49;7.88;;;7.07;;
68140;SDS011;54941;52.220;104.306;2023-07-29T05:06:17;8.05;;;6.40;;
68140;SDS011;54941;52.220;104.306;2023-07-29T05:08:43;8.38;;;7.00;;
68140;SDS011;54941;52.220;104.306;2023-07-29T05:11:09;9.10;;;7.93;;
68140;SDS011;54941;52.220;104.306;2023-07-29T05:13:39;8.98;;;7.47;;
68140;SDS011;54941;52.220;104.306;2023-07-29T05:16:05;8.90;;;6.93;;
68140;SDS011;54941;52.220;104.306;2023-07-29T05:18:31;8.40;;;6.53;;
68140;SDS011;54941;52.220;104.306;2023-07-29T05:20:57;8.20;;;6.03;;
68140;SDS011;54941;52.220;104.306;2023-07-29T05:23:25;7.88;;;6.00;;
68140;SDS011;54941;52.220;104.306;2023-07-29T05:25:52;9.63;;;7.43;;
68140;SDS011;54941;52.220;104.306;2023-07-29T05:28:18;8.45;;;5.80;;
68140;SDS011;54941;52.220;104.306;2023-07-29T05:30:44;6.93;;;6.22;;
68140;SDS011;54941;52.220;104.306;2023-07-29T05:33:11;7.30;;;6.05;;
68140;SDS011;54941;52.220;104.306;2023-07-29T05:35:37;8.18;;;6.22;;
68140;SDS011;54941;52.220;104.306;2023-07-29T05:38:03;8.73;;;6.18;;
68140;SDS011;54941;52.220;104.306;2023-07-29T05:40:31;6.75;;;6.05;;
68140;SDS011;54941;52.220;104.306;2023-07-29T05:42:57;7.15;;;6.07;;
68140;SDS011;54941;52.220;104.306;2023-07-29T05:45:24;7.68;;;6.63;;
68140;SDS011;54941;52.220;104.306;2023-07-29T05:47:50;7.75;;;5.90;;
68140;SDS011;54941;52.220;104.306;2023-07-29T05:50:16;7.57;;;6.80;;
68140;SDS011;54941;52.220;104.306;2023-07-29T05:52:43;7.78;;;5.50;;
68140;SDS011;54941;52.220;104.306;2023-07-29T05:55:09;7.20;;;6.50;;
68140;SDS011;54941;52.220;104.306;2023-07-29T05:57:37;8.35;;;6.20;;
68140;SDS011;54941;52.220;104.306;2023-07-29T06:00:04;9.32;;;7.07;;
68140;SDS011;54941;52.220;104.306;2023-07-29T06:02:31;7.38;;;6.15;;
68140;SDS011;54941;52.220;104.306;2023-07-29T06:04:57;7.20;;;5.63;;
68140;SDS011;54941;52.220;104.306;2023-07-29T06:07:24;7.82;;;6.20;;
68140;SDS011;54941;52.220;104.306;2023-07-29T06:09:52;7.32;;;6.25;;
68140;SDS011;54941;52.220;104.306;2023-07-29T06:12:19;6.20;;;5.45;;
68140;SDS011;54941;52.220;104.306;2023-07-29T06:14:46;6.50;;;5.80;;
68140;SDS011;54941;52.220;104.306;2023-07-29T06:17:13;7.07;;;6.30;;
68140;SDS011;54941;52.220;104.306;2023-07-29T06:19:41;6.78;;;5.70;;
68140;SDS011;54941;52.220;104.306;2023-07-29T06:22:07;7.00;;;5.78;;
68140;SDS011;54941;52.220;104.306;2023-07-29T06:24:34;7.28;;;6.57;;
68140;SDS011;54941;52.220;104.306;2023-07-29T06:27:05;7.43;;;5.85;;
68140;SDS011;54941;52.220;104.306;2023-07-29T06:29:32;6.40;;;5.70;;
68140;SDS011;54941;52.220;104.306;2023-07-29T06:32:03;7.70;;;6.50;;
68140;SDS011;54941;52.220;104.306;2023-07-29T06:34:30;5.78;;;5.18;;
68140;SDS011;54941;52.220;104.306;2023-07-29T06:36:56;7.63;;;5.78;;
68140;SDS011;54941;52.220;104.306;2023-07-29T06:39:22;6.70;;;5.35;;
68140;SDS011;54941;52.220;104.306;2023-07-29T06:41:49;5.95;;;4.90;;
68140;SDS011;54941;52.220;104.306;2023-07-29T06:44:15;6.72;;;5.50;;
68140;SDS011;54941;52.220;104.306;2023-07-29T06:46:42;6.18;;;5.22;;
68140;SDS011;54941;52.220;104.306;2023-07-29T06:49:10;7.22;;;5.82;;
68140;SDS011;54941;52.220;104.306;2023-07-29T06:51:36;7.63;;;5.28;;
68140;SDS011;54941;52.220;104.306;2023-07-29T06:54:02;6.03;;;5.28;;
68140;SDS011;54941;52.220;104.306;2023-07-29T06:56:29;8.32;;;5.30;;
68140;SDS011;54941;52.220;104.306;2023-07-29T06:58:55;8.07;;;5.80;;
68140;SDS011;54941;52.220;104.306;2023-07-29T07:01:21;7.03;;;5.63;;
68140;SDS011;54941;52.220;104.306;2023-07-29T07:03:48;8.15;;;6.00;;
68140;SDS011;54941;52.220;104.306;2023-07-29T07:06:15;8.07;;;6.03;;
68140;SDS011;54941;52.220;104.306;2023-07-29T07:08:42;6.30;;;4.78;;
68140;SDS011;54941;52.220;104.306;2023-07-29T07:11:08;6.32;;;4.88;;
68140;SDS011;54941;52.220;104.306;2023-07-29T07:13:34;6.65;;;4.72;;
68140;SDS011;54941;52.220;104.306;2023-07-29T07:16:04;6.35;;;4.82;;
68140;SDS011;54941;52.220;104.306;2023-07-29T07:18:30;6.13;;;5.00;;
68140;SDS011;54941;52.220;104.306;2023-07-29T07:20:56;7.40;;;4.93;;
68140;SDS011;54941;52.220;104.306;2023-07-29T07:23:24;7.05;;;5.15;;
68140;SDS011;54941;52.220;104.306;2023-07-29T07:25:50;6.05;;;4.90;;
68140;SDS011;54941;52.220;104.306;2023-07-29T07:28:17;6.47;;;5.60;;
68140;SDS011;54941;52.220;104.306;2023-07-29T07:30:43;5.68;;;4.90;;
68140;SDS011;54941;52.220;104.306;2023-07-29T07:33:09;5.80;;;4.28;;
68140;SDS011;54941;52.220;104.306;2023-07-29T07:35:36;7.63;;;4.72;;
68140;SDS011;54941;52.220;104.306;2023-07-29T07:38:02;6.07;;;4.50;;
68140;SDS011;54941;52.220;104.306;2023-07-29T07:40:30;5.18;;;4.65;;
68140;SDS011;54941;52.220;104.306;2023-07-29T07:42:56;5.15;;;4.63;;
68140;SDS011;54941;52.220;104.306;2023-07-29T07:45:23;5.30;;;4.63;;
68140;SDS011;54941;52.220;104.306;2023-07-29T07:47:49;6.88;;;5.25;;
68140;SDS011;54941;52.220;104.306;2023-07-29T07:50:17;5.63;;;4.70;;
68140;SDS011;54941;52.220;104.306;2023-07-29T07:52:43;6.38;;;5.43;;
68140;SDS011;54941;52.220;104.306;2023-07-29T07:55:10;5.80;;;4.50;;
68140;SDS011;54941;52.220;104.306;2023-07-29T07:57:38;6.70;;;5.32;;
68140;SDS011;54941;52.220;104.306;2023-07-29T08:00:04;5.72;;;5.13;;
68140;SDS011;54941;52.220;104.306;2023-07-29T08:02:32;6.45;;;5.10;;
68140;SDS011;54941;52.220;104.306;2023-07-29T08:04:58;6.90;;;5.25;;
68140;SDS011;54941;52.220;104.306;2023-07-29T08:07:24;8.43;;;5.60;;
68140;SDS011;54941;52.220;104.306;2023-07-29T08:09:50;8.02;;;5.68;;
68140;SDS011;54941;52.220;104.306;2023-07-29T08:12:20;7.10;;;5.43;;
68140;SDS011;54941;52.220;104.306;2023-07-29T08:14:48;7.57;;;6.55;;
68140;SDS011;54941;52.220;104.306;2023-07-29T08:17:14;7.03;;;5.57;;
68140;SDS011;54941;52.220;104.306;2023-07-29T08:19:40;8.48;;;5.93;;
68140;SDS011;54941;52.220;104.306;2023-07-29T08:22:07;6.72;;;5.80;;
68140;SDS011;54941;52.220;104.306;2023-07-29T08:24:36;8.25;;;7.05;;
68140;SDS011;54941;52.220;104.306;2023-07-29T08:27:02;9.38;;;6.95;;
68140;SDS011;54941;52.220;104.306;2023-07-29T08:29:29;7.88;;;6.60;;
68140;SDS011;54941;52.220;104.306;2023-07-29T08:31:57;7.43;;;5.72;;
68140;SDS011;54941;52.220;104.306;2023-07-29T08:34:23;9.07;;;6.47;;
68140;SDS011;54941;52.220;104.306;2023-07-29T08:36:49;7.53;;;6.13;;
68140;SDS011;54941;52.220;104.306;2023-07-29T08:39:16;8.88;;;6.28;;
68140;SDS011;54941;52.220;104.306;2023-07-29T08:41:45;9.60;;;5.45;;
68140;SDS011;54941;52.220;104.306;2023-07-29T08:44:17;7.65;;;5.68;;
68140;SDS011;54941;52.220;104.306;2023-07-29T08:46:47;6.57;;;5.57;;
68140;SDS011;54941;52.220;104.306;2023-07-29T08:49:14;9.60;;;6.68;;
68140;SDS011;54941;52.220;104.306;2023-07-29T08:51:41;8.90;;;5.10;;
68140;SDS011;54941;52.220;104.306;2023-07-29T08:54:09;8.10;;;5.70;;
68140;SDS011;54941;52.220;104.306;2023-07-29T08:56:36;8.07;;;5.45;;
68140;SDS011;54941;52.220;104.306;2023-07-29T08:59:03;7.97;;;5.20;;
68140;SDS011;54941;52.220;104.306;2023-07-29T09:01:30;6.93;;;6.15;;
68140;SDS011;54941;52.220;104.306;2023-07-29T09:03:57;9.15;;;5.95;;
68140;SDS011;54941;52.220;104.306;2023-07-29T09:06:25;7.55;;;6.65;;
68140;SDS011;54941;52.220;104.306;2023-07-29T09:08:54;7.78;;;5.63;;
68140;SDS011;54941;52.220;104.306;2023-07-29T09:11:20;8.25;;;5.65;;
68140;SDS011;54941;52.220;104.306;2023-07-29T09:13:47;8.82;;;6.25;;
68140;SDS011;54941;52.220;104.306;2023-07-29T09:16:13;7.57;;;5.70;;
68140;SDS011;54941;52.220;104.306;2023-07-29T09:18:40;8.30;;;5.75;;
68140;SDS011;54941;52.220;104.306;2023-07-29T09:21:06;7.25;;;5.93;;
68140;SDS011;54941;52.220;104.306;2023-07-29T09:23:39;7.93;;;6.32;;
68140;SDS011;54941;52.220;104.306;2023-07-29T09:26:09;8.07;;;5.55;;
68140;SDS011;54941;52.220;104.306;2023-07-29T09:28:38;7.18;;;5.60;;
68140;SDS011;54941;52.220;104.306;2023-07-29T09:31:05;6.55;;;5.32;;
68140;SDS011;54941;52.220;104.306;2023-07-29T09:33:33;9.23;;;6.10;;
68140;SDS011;54941;52.220;104.306;2023-07-29T09:36:00;8.32;;;6.10;;
68140;SDS011;54941;52.220;104.306;2023-07-29T09:38:27;8.75;;;6.97;;
68140;SDS011;54941;52.220;104.306;2023-07-29T09:40:56;7.93;;;6.60;;
68140;SDS011;54941;52.220;104.306;2023-07-29T09:43:25;8.27;;;6.35;;
68140;SDS011;54941;52.220;104.306;2023-07-29T09:45:51;9.95;;;6.22;;
68140;SDS011;54941;52.220;104.306;2023-07-29T09:48:22;8.68;;;5.72;;
68140;SDS011;54941;52.220;104.306;2023-07-29T09:50:48;6.57;;;5.53;;
68140;SDS011;54941;52.220;104.306;2023-07-29T09:53:17;6.28;;;5.22;;
68140;SDS011;54941;52.220;104.306;2023-07-29T09:55:45;7.25;;;5.50;;
68140;SDS011;54941;52.220;104.306;2023-07-29T09:58:14;6.38;;;5.32;;
68140;SDS011;54941;52.220;104.306;2023-07-29T10:00:44;7.93;;;5.95;;
68140;SDS011;54941;52.220;104.306;2023-07-29T10:03:12;9.63;;;5.50;;
68140;SDS011;54941;52.220;104.306;2023-07-29T10:05:40;9.40;;;5.95;;
68140;SDS011;54941;52.220;104.306;2023-07-29T10:08:06;6.82;;;5.40;;
68140;SDS011;54941;52.220;104.306;2023-07-29T10:10:35;7.65;;;5.47;;
68140;SDS011;54941;52.220;104.306;2023-07-29T10:13:04;8.18;;;5.82;;
68140;SDS011;54941;52.220;104.306;2023-07-29T10:15:33;8.13;;;6.20;;
68140;SDS011;54941;52.220;104.306;2023-07-29T10:18:02;7.68;;;6.32;;
68140;SDS011;54941;52.220;104.306;2023-07-29T10:20:28;9.38;;;6.80;;
68140;SDS011;54941;52.220;104.306;2023-07-29T10:22:59;7.18;;;5.82;;
68140;SDS011;54941;52.220;104.306;2023-07-29T10:25:27;8.70;;;5.13;;
68140;SDS011;54941;52.220;104.306;2023-07-29T10:28:06;8.55;;;5.72;;
68140;SDS011;54941;52.220;104.306;2023-07-29T10:30:39;7.50;;;5.93;;
68140;SDS011;54941;52.220;104.306;2023-07-29T10:33:08;7.55;;;5.70;;
68140;SDS011;54941;52.220;104.306;2023-07-29T10:35:34;7.45;;;5.80;;
68140;SDS011;54941;52.220;104.306;2023-07-29T10:38:02;6.68;;;5.38;;
68140;SDS011;54941;52.220;104.306;2023-07-29T10:40:43;7.25;;;5.25;;
68140;SDS011;54941;52.220;104.306;2023-07-29T10:43:12;8.65;;;6.10;;
68140;SDS011;54941;52.220;104.306;2023-07-29T10:45:45;8.55;;;5.85;;
68140;SDS011;54941;52.220;104.306;2023-07-29T10:48:12;8.43;;;6.38;;
68140;SDS011;54941;52.220;104.306;2023-07-29T10:50:39;6.35;;;5.07;;
68140;SDS011;54941;52.220;104.306;2023-07-29T10:53:05;7.55;;;6.00;;
68140;SDS011;54941;52.220;104.306;2023-07-29T10:55:36;8.93;;;6.35;;
68140;SDS011;54941;52.220;104.306;2023-07-29T10:58:10;7.88;;;6.40;;
68140;SDS011;54941;52.220;104.306;2023-07-29T11:00:38;7.20;;;5.70;;
68140;SDS011;54941;52.220;104.306;2023-07-29T11:03:08;7.47;;;6.00;;
68140;SDS011;54941;52.220;104.306;2023-07-29T11:05:42;8.30;;;6.35;;
68140;SDS011;54941;52.220;104.306;2023-07-29T11:08:19;7.10;;;6.38;;
68140;SDS011;54941;52.220;104.306;2023-07-29T11:11:03;8.40;;;6.80;;
68140;SDS011;54941;52.220;104.306;2023-07-29T11:13:32;9.90;;;7.10;;
68140;SDS011;54941;52.220;104.306;2023-07-29T11:15:59;10.10;;;6.13;;
68140;SDS011;54941;52.220;104.306;2023-07-29T11:18:28;7.60;;;5.65;;
68140;SDS011;54941;52.220;104.306;2023-07-29T11:20:56;7.97;;;5.93;;
68140;SDS011;54941;52.220;104.306;2023-07-29T11:23:29;8.20;;;5.90;;
68140;SDS011;54941;52.220;104.306;2023-07-29T11:25:57;12.70;;;6.93;;
68140;SDS011;54941;52.220;104.306;2023-07-29T11:28:24;8.68;;;6.70;;
68140;SDS011;54941;52.220;104.306;2023-07-29T11:30:50;9.32;;;6.90;;
68140;SDS011;54941;52.220;104.306;2023-07-29T11:33:17;9.45;;;6.45;;
68140;SDS011;54941;52.220;104.306;2023-07-29T11:35:46;9.18;;;6.20;;
68140;SDS011;54941;52.220;104.306;2023-07-29T11:38:14;9.07;;;6.07;;
68140;SDS011;54941;52.220;104.306;2023-07-29T11:40:41;11.32;;;7.43;;
68140;SDS011;54941;52.220;104.306;2023-07-29T11:43:07;8.63;;;7.00;;
68140;SDS011;54941;52.220;104.306;2023-07-29T11:45:34;13.15;;;7.07;;
68140;SDS011;54941;52.220;104.306;2023-07-29T11:48:00;10.15;;;7.40;;
68140;SDS011;54941;52.220;104.306;2023-07-29T11:50:27;9.95;;;7.55;;
68140;SDS011;54941;52.220;104.306;2023-07-29T11:52:55;11.00;;;8.00;;
68140;SDS011;54941;52.220;104.306;2023-07-29T11:55:21;11.07;;;7.65;;
68140;SDS011;54941;52.220;104.306;2023-07-29T11:57:48;10.77;;;8.02;;
68140;SDS011;54941;52.220;104.306;2023-07-29T12:00:17;13.13;;;7.65;;
68140;SDS011;54941;52.220;104.306;2023-07-29T12:02:44;14.38;;;9.30;;
68140;SDS011;54941;52.220;104.306;2023-07-29T12:05:12;11.18;;;7.88;;
68140;SDS011;54941;52.220;104.306;2023-07-29T12:07:40;12.35;;;9.85;;
68140;SDS011;54941;52.220;104.306;2023-07-29T12:10:10;12.48;;;8.27;;
68140;SDS011;54941;52.220;104.306;2023-07-29T12:15:06;12.30;;;7.13;;
68140;SDS011;54941;52.220;104.306;2023-07-29T12:17:37;10.30;;;7.45;;
68140;SDS011;54941;52.220;104.306;2023-07-29T12:20:08;9.80;;;8.25;;
68140;SDS011;54941;52.220;104.306;2023-07-29T12:22:35;10.20;;;6.78;;
68140;SDS011;54941;52.220;104.306;2023-07-29T12:25:01;12.45;;;7.70;;
68140;SDS011;54941;52.220;104.306;2023-07-29T12:27:33;10.40;;;7.82;;
68140;SDS011;54941;52.220;104.306;2023-07-29T12:30:00;11.88;;;7.65;;
68140;SDS011;54941;52.220;104.306;2023-07-29T12:32:32;9.70;;;6.47;;
68140;SDS011;54941;52.220;104.306;2023-07-29T12:34:58;10.27;;;6.80;;
68140;SDS011;54941;52.220;104.306;2023-07-29T12:37:31;12.90;;;8.45;;
68140;SDS011;54941;52.220;104.306;2023-07-29T12:39:59;9.38;;;7.28;;
68140;SDS011;54941;52.220;104.306;2023-07-29T12:42:25;9.98;;;7.22;;
68140;SDS011;54941;52.220;104.306;2023-07-29T12:44:53;10.90;;;7.90;;
68140;SDS011;54941;52.220;104.306;2023-07-29T12:47:20;9.65;;;7.53;;
68140;SDS011;54941;52.220;104.306;2023-07-29T12:49:48;9.75;;;7.65;;
68140;SDS011;54941;52.220;104.306;2023-07-29T12:52:14;10.27;;;7.70;;
68140;SDS011;54941;52.220;104.306;2023-07-29T12:54:40;9.88;;;7.45;;
68140;SDS011;54941;52.220;104.306;2023-07-29T12:57:10;8.80;;;7.28;;
68140;SDS011;54941;52.220;104.306;2023-07-29T12:59:36;9.50;;;7.38;;
68140;SDS011;54941;52.220;104.306;2023-07-29T13:02:04;12.43;;;9.40;;
68140;SDS011;54941;52.220;104.306;2023-07-29T13:04:30;12.88;;;8.60;;
68140;SDS011;54941;52.220;104.306;2023-07-29T13:06:57;12.05;;;9.07;;
68140;SDS011;54941;52.220;104.306;2023-07-29T13:09:23;11.65;;;7.95;;
68140;SDS011;54941;52.220;104.306;2023-07-29T13:11:49;9.60;;;7.30;;
68140;SDS011;54941;52.220;104.306;2023-07-29T13:14:16;9.23;;;7.30;;
68140;SDS011;54941;52.220;104.306;2023-07-29T13:16:42;11.38;;;7.70;;
68140;SDS011;54941;52.220;104.306;2023-07-29T13:19:10;13.30;;;10.00;;
68140;SDS011;54941;52.220;104.306;2023-07-29T13:21:36;18.63;;;13.20;;
68140;SDS011;54941;52.220;104.306;2023-07-29T13:24:03;21.67;;;14.40;;
68140;SDS011;54941;52.220;104.306;2023-07-29T13:26:29;19.40;;;12.73;;
68140;SDS011;54941;52.220;104.306;2023-07-29T13:28:55;15.80;;;11.98;;
68140;SDS011;54941;52.220;104.306;2023-07-29T13:31:22;12.60;;;8.63;;
68140;SDS011;54941;52.220;104.306;2023-07-29T13:33:48;12.63;;;8.02;;
68140;SDS011;54941;52.220;104.306;2023-07-29T13:36:16;11.60;;;9.20;;
68140;SDS011;54941;52.220;104.306;2023-07-29T13:38:42;12.75;;;9.00;;
68140;SDS011;54941;52.220;104.306;2023-07-29T13:41:11;14.38;;;10.77;;
68140;SDS011;54941;52.220;104.306;2023-07-29T13:43:51;12.13;;;8.25;;
68140;SDS011;54941;52.220;104.306;2023-07-29T13:46:26;15.77;;;9.95;;
68140;SDS011;54941;52.220;104.306;2023-07-29T13:48:53;11.00;;;8.95;;
68140;SDS011;54941;52.220;104.306;2023-07-29T13:51:48;10.93;;;8.25;;
68140;SDS011;54941;52.220;104.306;2023-07-29T13:54:14;11.40;;;8.85;;
68140;SDS011;54941;52.220;104.306;2023-07-29T13:56:42;12.48;;;9.32;;
68140;SDS011;54941;52.220;104.306;2023-07-29T13:59:09;11.50;;;8.55;;
68140;SDS011;54941;52.220;104.306;2023-07-29T14:01:35;14.93;;;10.35;;
68140;SDS011;54941;52.220;104.306;2023-07-29T14:04:01;10.43;;;8.30;;
68140;SDS011;54941;52.220;104.306;2023-07-29T14:06:28;14.23;;;8.65;;
68140;SDS011;54941;52.220;104.306;2023-07-29T14:08:56;12.10;;;8.75;;
68140;SDS011;54941;52.220;104.306;2023-07-29T14:11:23;12.02;;;8.93;;
68140;SDS011;54941;52.220;104.306;2023-07-29T14:13:49;13.80;;;9.80;;
68140;SDS011;54941;52.220;104.306;2023-07-29T14:16:15;12.88;;;8.40;;
68140;SDS011;54941;52.220;104.306;2023-07-29T14:18:41;13.35;;;9.38;;
68140;SDS011;54941;52.220;104.306;2023-07-29T14:21:08;13.70;;;9.23;;
68140;SDS011;54941;52.220;104.306;2023-07-29T14:23:34;12.02;;;8.32;;